sensor_id;sensor_type;location;lat;lon;timestamp;temperature;humidity
15131;DHT22;7666;50.920;4.628;2023-02-28T00:01:19;0.40;99.90
15131;DHT22;7666;50.920;4.628;2023-02-28T00:04:05;0.40;99.90
15131;DHT22;7666;50.920;4.628;2023-02-28T00:06:51;0.30;99.90
15131;DHT22;7666;50.920;4.628;2023-02-28T00:09:37;0.30;99.90
15131;DHT22;7666;50.920;4.628;2023-02-28T00:12:23;0.20;99.90
15131;DHT22;7666;50.920;4.628;2023-02-28T00:15:10;0.20;99.90
15131;DHT22;7666;50.920;4.628;2023-02-28T00:17:56;0.20;99.90
15131;DHT22;7666;50.920;4.628;2023-02-28T00:20:42;0.10;99.90
15131;DHT22;7666;50.920;4.628;2023-02-28T00:23:28;0.10;99.90
15131;DHT22;7666;50.920;4.628;2023-02-28T00:26:14;0.10;99.90
15131;DHT22;7666;50.920;4.628;2023-02-28T00:29:00;0.10;99.90
15131;DHT22;7666;50.920;4.628;2023-02-28T00:31:46;0.10;99.90
15131;DHT22;7666;50.920;4.628;2023-02-28T00:34:33;0.10;99.90
15131;DHT22;7666;50.920;4.628;2023-02-28T00:37:23;0.00;99.90
15131;DHT22;7666;50.920;4.628;2023-02-28T00:40:10;-0.10;99.90
15131;DHT22;7666;50.920;4.628;2023-02-28T00:42:57;-0.20;99.90
15131;DHT22;7666;50.920;4.628;2023-02-28T00:45:43;-0.20;99.90
15131;DHT22;7666;50.920;4.628;2023-02-28T00:48:29;-0.20;99.90
15131;DHT22;7666;50.920;4.628;2023-02-28T00:51:15;-0.20;99.90
15131;DHT22;7666;50.920;4.628;2023-02-28T00:54:01;-0.10;99.90
15131;DHT22;7666;50.920;4.628;2023-02-28T00:56:47;-0.10;99.90
15131;DHT22;7666;50.920;4.628;2023-02-28T00:59:34;-0.20;99.90
15131;DHT22;7666;50.920;4.628;2023-02-28T01:02:21;-0.20;99.90
15131;DHT22;7666;50.920;4.628;2023-02-28T01:05:08;-0.30;99.90
15131;DHT22;7666;50.920;4.628;2023-02-28T01:07:54;-0.20;99.90
15131;DHT22;7666;50.920;4.628;2023-02-28T01:10:40;-0.20;99.90
15131;DHT22;7666;50.920;4.628;2023-02-28T01:13:26;-0.20;99.90
15131;DHT22;7666;50.920;4.628;2023-02-28T01:16:13;-0.20;99.90
15131;DHT22;7666;50.920;4.628;2023-02-28T01:18:59;-0.30;99.90
15131;DHT22;7666;50.920;4.628;2023-02-28T01:21:45;-0.30;99.90
15131;DHT22;7666;50.920;4.628;2023-02-28T01:24:32;-0.40;99.90
15131;DHT22;7666;50.920;4.628;2023-02-28T01:27:18;-0.30;99.90
15131;DHT22;7666;50.920;4.628;2023-02-28T01:30:05;-0.10;99.90
15131;DHT22;7666;50.920;4.628;2023-02-28T01:32:51;-0.20;99.90
15131;DHT22;7666;50.920;4.628;2023-02-28T01:35:39;-0.20;99.90
15131;DHT22;7666;50.920;4.628;2023-02-28T01:38:25;-0.10;99.90
15131;DHT22;7666;50.920;4.628;2023-02-28T01:41:20;-0.10;99.90
15131;DHT22;7666;50.920;4.628;2023-02-28T01:44:55;-0.10;99.90
15131;DHT22;7666;50.920;4.628;2023-02-28T01:47:13;-0.20;99.90
15131;DHT22;7666;50.920;4.628;2023-02-28T01:50:04;-0.20;99.90
15131;DHT22;7666;50.920;4.628;2023-02-28T01:52:52;-0.30;99.90
15131;DHT22;7666;50.920;4.628;2023-02-28T01:55:44;-0.30;99.90
15131;DHT22;7666;50.920;4.628;2023-02-28T01:58:31;-0.30;99.90
15131;DHT22;7666;50.920;4.628;2023-02-28T02:01:19;-0.40;99.90
15131;DHT22;7666;50.920;4.628;2023-02-28T02:04:08;-0.40;99.90
15131;DHT22;7666;50.920;4.628;2023-02-28T02:06:55;-0.30;99.90
15131;DHT22;7666;50.920;4.628;2023-02-28T02:09:41;-0.40;99.90
15131;DHT22;7666;50.920;4.628;2023-02-28T02:32:09;-0.80;99.90
15131;DHT22;7666;50.920;4.628;2023-02-28T02:42:09;-0.80;99.90
15131;DHT22;7666;50.920;4.628;2023-02-28T02:44:53;-0.80;99.90
15131;DHT22;7666;50.920;4.628;2023-02-28T02:47:43;-0.80;99.90
15131;DHT22;7666;50.920;4.628;2023-02-28T02:50:34;-0.80;99.90
15131;DHT22;7666;50.920;4.628;2023-02-28T02:53:26;-0.80;99.90
15131;DHT22;7666;50.920;4.628;2023-02-28T02:56:13;-0.80;99.90
15131;DHT22;7666;50.920;4.628;2023-02-28T02:59:03;-0.80;99.90
15131;DHT22;7666;50.920;4.628;2023-02-28T03:01:53;-0.80;99.90
15131;DHT22;7666;50.920;4.628;2023-02-28T03:04:45;-0.80;99.90
15131;DHT22;7666;50.920;4.628;2023-02-28T03:07:32;-0.80;99.90
15131;DHT22;7666;50.920;4.628;2023-02-28T03:10:38;-0.80;99.90
15131;DHT22;7666;50.920;4.628;2023-02-28T03:23:27;-0.90;99.90
15131;DHT22;7666;50.920;4.628;2023-02-28T03:26:22;-0.90;99.90
15131;DHT22;7666;50.920;4.628;2023-02-28T03:32:24;-0.90;99.90
15131;DHT22;7666;50.920;4.628;2023-02-28T03:35:20;-0.90;99.90
15131;DHT22;7666;50.920;4.628;2023-02-28T03:41:13;-1.00;99.90
15131;DHT22;7666;50.920;4.628;2023-02-28T03:44:47;-1.00;99.90
15131;DHT22;7666;50.920;4.628;2023-02-28T03:47:22;-1.00;99.90
15131;DHT22;7666;50.920;4.628;2023-02-28T03:50:21;-1.00;99.90
15131;DHT22;7666;50.920;4.628;2023-02-28T03:53:15;-1.00;99.90
15131;DHT22;7666;50.920;4.628;2023-02-28T03:56:19;-1.10;99.90
15131;DHT22;7666;50.920;4.628;2023-02-28T04:02:19;-1.20;99.90
15131;DHT22;7666;50.920;4.628;2023-02-28T04:05:06;-1.10;99.90
15131;DHT22;7666;50.920;4.628;2023-02-28T04:07:53;-1.30;99.90
15131;DHT22;7666;50.920;4.628;2023-02-28T04:10:40;-1.20;99.90
15131;DHT22;7666;50.920;4.628;2023-02-28T04:13:26;-1.20;99.90
15131;DHT22;7666;50.920;4.628;2023-02-28T04:16:12;-1.20;99.90
15131;DHT22;7666;50.920;4.628;2023-02-28T04:18:58;-1.10;99.90
15131;DHT22;7666;50.920;4.628;2023-02-28T04:21:51;-1.00;99.90
15131;DHT22;7666;50.920;4.628;2023-02-28T04:24:38;-1.00;99.90
15131;DHT22;7666;50.920;4.628;2023-02-28T04:27:27;-0.90;99.90
15131;DHT22;7666;50.920;4.628;2023-02-28T04:30:13;-0.80;99.90
15131;DHT22;7666;50.920;4.628;2023-02-28T04:32:59;-0.80;99.90
15131;DHT22;7666;50.920;4.628;2023-02-28T04:35:45;-0.80;99.90
15131;DHT22;7666;50.920;4.628;2023-02-28T04:38:36;-0.80;99.90
15131;DHT22;7666;50.920;4.628;2023-02-28T04:41:22;-0.90;99.90
15131;DHT22;7666;50.920;4.628;2023-02-28T04:44:09;-0.90;99.90
15131;DHT22;7666;50.920;4.628;2023-02-28T04:46:54;-1.00;99.90
15131;DHT22;7666;50.920;4.628;2023-02-28T04:49:40;-1.00;99.90
15131;DHT22;7666;50.920;4.628;2023-02-28T04:52:27;-1.00;99.90
15131;DHT22;7666;50.920;4.628;2023-02-28T04:55:13;-1.00;99.90
15131;DHT22;7666;50.920;4.628;2023-02-28T04:57:59;-1.00;99.90
15131;DHT22;7666;50.920;4.628;2023-02-28T05:00:45;-1.10;99.90
15131;DHT22;7666;50.920;4.628;2023-02-28T05:03:31;-1.00;99.90
15131;DHT22;7666;50.920;4.628;2023-02-28T05:06:18;-1.00;99.90
15131;DHT22;7666;50.920;4.628;2023-02-28T05:09:04;-0.90;99.90
15131;DHT22;7666;50.920;4.628;2023-02-28T05:11:50;-0.90;99.90
15131;DHT22;7666;50.920;4.628;2023-02-28T05:14:36;-1.00;99.90
15131;DHT22;7666;50.920;4.628;2023-02-28T05:17:22;-1.00;99.90
15131;DHT22;7666;50.920;4.628;2023-02-28T05:20:09;-1.00;99.90
15131;DHT22;7666;50.920;4.628;2023-02-28T05:22:57;-1.00;99.90
15131;DHT22;7666;50.920;4.628;2023-02-28T05:25:44;-0.90;99.90
15131;DHT22;7666;50.920;4.628;2023-02-28T05:28:30;-0.80;99.90
15131;DHT22;7666;50.920;4.628;2023-02-28T05:31:16;-0.90;99.90
15131;DHT22;7666;50.920;4.628;2023-02-28T05:34:02;-0.90;99.90
15131;DHT22;7666;50.920;4.628;2023-02-28T05:36:49;-0.80;99.90
15131;DHT22;7666;50.920;4.628;2023-02-28T05:39:35;-0.70;99.90
15131;DHT22;7666;50.920;4.628;2023-02-28T05:42:22;-0.70;99.90
15131;DHT22;7666;50.920;4.628;2023-02-28T05:45:08;-0.70;99.90
15131;DHT22;7666;50.920;4.628;2023-02-28T05:47:55;-0.70;99.90
15131;DHT22;7666;50.920;4.628;2023-02-28T05:50:41;-0.60;99.90
15131;DHT22;7666;50.920;4.628;2023-02-28T05:53:28;-0.60;99.90
15131;DHT22;7666;50.920;4.628;2023-02-28T05:56:15;-0.50;99.90
15131;DHT22;7666;50.920;4.628;2023-02-28T05:59:01;-0.50;99.90
15131;DHT22;7666;50.920;4.628;2023-02-28T06:01:47;-0.40;99.90
15131;DHT22;7666;50.920;4.628;2023-02-28T06:04:36;-0.40;99.90
15131;DHT22;7666;50.920;4.628;2023-02-28T06:07:22;-0.40;99.90
15131;DHT22;7666;50.920;4.628;2023-02-28T06:10:09;-0.40;99.90
15131;DHT22;7666;50.920;4.628;2023-02-28T06:12:55;-0.40;99.90
15131;DHT22;7666;50.920;4.628;2023-02-28T06:15:45;-0.30;99.90
15131;DHT22;7666;50.920;4.628;2023-02-28T06:18:31;-0.30;99.90
15131;DHT22;7666;50.920;4.628;2023-02-28T06:21:16;-0.30;99.90
15131;DHT22;7666;50.920;4.628;2023-02-28T06:24:03;-0.20;99.90
15131;DHT22;7666;50.920;4.628;2023-02-28T06:26:49;-0.20;99.90
15131;DHT22;7666;50.920;4.628;2023-02-28T06:29:36;-0.20;99.90
15131;DHT22;7666;50.920;4.628;2023-02-28T06:32:25;-0.10;99.90
15131;DHT22;7666;50.920;4.628;2023-02-28T06:35:11;-0.10;99.90
15131;DHT22;7666;50.920;4.628;2023-02-28T06:37:57;0.00;99.90
15131;DHT22;7666;50.920;4.628;2023-02-28T06:40:44;0.00;99.90
15131;DHT22;7666;50.920;4.628;2023-02-28T06:43:33;0.10;99.90
15131;DHT22;7666;50.920;4.628;2023-02-28T06:46:19;0.40;99.90
15131;DHT22;7666;50.920;4.628;2023-02-28T06:49:06;0.90;99.90
15131;DHT22;7666;50.920;4.628;2023-02-28T06:51:54;1.70;99.90
15131;DHT22;7666;50.920;4.628;2023-02-28T06:54:40;3.00;99.90
15131;DHT22;7666;50.920;4.628;2023-02-28T06:57:30;4.20;99.90
15131;DHT22;7666;50.920;4.628;2023-02-28T07:00:17;5.40;99.90
15131;DHT22;7666;50.920;4.628;2023-02-28T07:03:03;6.50;99.90
15131;DHT22;7666;50.920;4.628;2023-02-28T07:05:49;7.60;99.90
15131;DHT22;7666;50.920;4.628;2023-02-28T07:08:35;8.50;99.90
15131;DHT22;7666;50.920;4.628;2023-02-28T07:11:27;8.90;99.90
15131;DHT22;7666;50.920;4.628;2023-02-28T07:14:13;9.00;99.90
15131;DHT22;7666;50.920;4.628;2023-02-28T07:16:59;8.50;99.90
15131;DHT22;7666;50.920;4.628;2023-02-28T07:19:45;7.90;99.90
15131;DHT22;7666;50.920;4.628;2023-02-28T07:22:31;7.20;99.90
15131;DHT22;7666;50.920;4.628;2023-02-28T07:25:17;7.20;99.90
15131;DHT22;7666;50.920;4.628;2023-02-28T07:28:03;7.10;99.90
15131;DHT22;7666;50.920;4.628;2023-02-28T07:30:49;7.30;99.90
15131;DHT22;7666;50.920;4.628;2023-02-28T07:33:35;7.70;99.90
15131;DHT22;7666;50.920;4.628;2023-02-28T07:36:21;7.40;99.90
15131;DHT22;7666;50.920;4.628;2023-02-28T07:39:07;7.30;99.90
15131;DHT22;7666;50.920;4.628;2023-02-28T07:41:55;8.20;99.90
15131;DHT22;7666;50.920;4.628;2023-02-28T07:44:42;8.60;99.90
15131;DHT22;7666;50.920;4.628;2023-02-28T07:47:31;8.10;99.90
15131;DHT22;7666;50.920;4.628;2023-02-28T07:50:17;7.50;99.90
15131;DHT22;7666;50.920;4.628;2023-02-28T07:53:03;7.90;99.90
15131;DHT22;7666;50.920;4.628;2023-02-28T07:55:50;9.00;99.90
15131;DHT22;7666;50.920;4.628;2023-02-28T07:58:36;9.60;99.90
15131;DHT22;7666;50.920;4.628;2023-02-28T08:01:22;9.30;99.90
15131;DHT22;7666;50.920;4.628;2023-02-28T08:04:08;9.40;99.90
15131;DHT22;7666;50.920;4.628;2023-02-28T08:06:54;9.40;99.90
15131;DHT22;7666;50.920;4.628;2023-02-28T08:09:42;9.50;99.90
15131;DHT22;7666;50.920;4.628;2023-02-28T08:12:28;9.70;99.90
15131;DHT22;7666;50.920;4.628;2023-02-28T08:15:14;9.60;99.90
15131;DHT22;7666;50.920;4.628;2023-02-28T08:18:00;9.00;99.90
15131;DHT22;7666;50.920;4.628;2023-02-28T08:20:46;8.00;99.90
15131;DHT22;7666;50.920;4.628;2023-02-28T08:23:32;7.00;99.90
15131;DHT22;7666;50.920;4.628;2023-02-28T08:26:20;6.20;99.90
15131;DHT22;7666;50.920;4.628;2023-02-28T08:29:06;5.40;99.90
15131;DHT22;7666;50.920;4.628;2023-02-28T08:31:52;4.60;99.90
15131;DHT22;7666;50.920;4.628;2023-02-28T08:34:39;4.50;99.90
15131;DHT22;7666;50.920;4.628;2023-02-28T08:37:26;4.30;99.90
15131;DHT22;7666;50.920;4.628;2023-02-28T08:40:12;4.00;99.90
15131;DHT22;7666;50.920;4.628;2023-02-28T08:43:03;4.00;99.90
15131;DHT22;7666;50.920;4.628;2023-02-28T08:45:52;3.90;99.90
15131;DHT22;7666;50.920;4.628;2023-02-28T08:48:38;3.90;99.90
15131;DHT22;7666;50.920;4.628;2023-02-28T08:51:24;3.90;99.90
15131;DHT22;7666;50.920;4.628;2023-02-28T08:54:13;4.10;99.90
15131;DHT22;7666;50.920;4.628;2023-02-28T08:57:02;4.30;99.90
15131;DHT22;7666;50.920;4.628;2023-02-28T08:59:48;4.30;99.90
15131;DHT22;7666;50.920;4.628;2023-02-28T09:02:34;4.30;99.90
15131;DHT22;7666;50.920;4.628;2023-02-28T09:05:20;4.10;99.90
15131;DHT22;7666;50.920;4.628;2023-02-28T09:08:06;3.90;99.90
15131;DHT22;7666;50.920;4.628;2023-02-28T09:10:52;3.90;99.90
15131;DHT22;7666;50.920;4.628;2023-02-28T09:13:40;4.00;99.90
15131;DHT22;7666;50.920;4.628;2023-02-28T09:16:26;4.20;99.90
15131;DHT22;7666;50.920;4.628;2023-02-28T09:19:12;4.30;99.90
15131;DHT22;7666;50.920;4.628;2023-02-28T09:21:59;4.20;99.90
15131;DHT22;7666;50.920;4.628;2023-02-28T09:24:44;4.30;99.90
15131;DHT22;7666;50.920;4.628;2023-02-28T09:27:30;4.40;99.90
15131;DHT22;7666;50.920;4.628;2023-02-28T09:30:17;4.40;99.90
15131;DHT22;7666;50.920;4.628;2023-02-28T09:33:03;4.40;99.90
15131;DHT22;7666;50.920;4.628;2023-02-28T09:35:50;4.40;99.90
15131;DHT22;7666;50.920;4.628;2023-02-28T09:38:36;4.60;99.90
15131;DHT22;7666;50.920;4.628;2023-02-28T09:41:25;4.70;99.90
15131;DHT22;7666;50.920;4.628;2023-02-28T09:44:22;4.70;99.90
15131;DHT22;7666;50.920;4.628;2023-02-28T09:50:40;4.80;99.90
15131;DHT22;7666;50.920;4.628;2023-02-28T09:53:37;4.90;99.90
15131;DHT22;7666;50.920;4.628;2023-02-28T09:56:33;4.70;99.90
15131;DHT22;7666;50.920;4.628;2023-02-28T09:59:35;4.60;99.90
15131;DHT22;7666;50.920;4.628;2023-02-28T10:05:52;4.90;99.90
15131;DHT22;7666;50.920;4.628;2023-02-28T10:11:33;4.90;99.90
15131;DHT22;7666;50.920;4.628;2023-02-28T10:14:22;4.80;99.90
15131;DHT22;7666;50.920;4.628;2023-02-28T10:17:38;4.80;99.90
15131;DHT22;7666;50.920;4.628;2023-02-28T10:20:25;4.70;99.90
15131;DHT22;7666;50.920;4.628;2023-02-28T10:23:32;4.70;99.90
15131;DHT22;7666;50.920;4.628;2023-02-28T10:26:20;4.90;99.90
15131;DHT22;7666;50.920;4.628;2023-02-28T10:29:08;5.10;99.90
15131;DHT22;7666;50.920;4.628;2023-02-28T10:31:55;5.30;99.90
15131;DHT22;7666;50.920;4.628;2023-02-28T10:34:41;5.20;99.90
15131;DHT22;7666;50.920;4.628;2023-02-28T10:37:28;5.30;99.90
15131;DHT22;7666;50.920;4.628;2023-02-28T10:43:19;5.20;99.90
15131;DHT22;7666;50.920;4.628;2023-02-28T10:49:03;5.30;99.90
15131;DHT22;7666;50.920;4.628;2023-02-28T10:52:09;5.50;99.90
15131;DHT22;7666;50.920;4.628;2023-02-28T10:55:21;5.60;99.90
15131;DHT22;7666;50.920;4.628;2023-02-28T10:58:21;5.60;99.90
15131;DHT22;7666;50.920;4.628;2023-02-28T11:01:18;5.80;99.90
15131;DHT22;7666;50.920;4.628;2023-02-28T11:07:17;5.80;99.90
15131;DHT22;7666;50.920;4.628;2023-02-28T11:10:04;5.40;99.90
15131;DHT22;7666;50.920;4.628;2023-02-28T11:12:55;5.60;99.90
15131;DHT22;7666;50.920;4.628;2023-02-28T11:15:41;5.90;99.90
15131;DHT22;7666;50.920;4.628;2023-02-28T11:18:41;5.80;99.90
15131;DHT22;7666;50.920;4.628;2023-02-28T11:21:31;5.70;99.90
15131;DHT22;7666;50.920;4.628;2023-02-28T11:24:41;5.80;99.90
15131;DHT22;7666;50.920;4.628;2023-02-28T11:33:29;5.60;99.90
15131;DHT22;7666;50.920;4.628;2023-02-28T11:36:22;5.80;99.90
15131;DHT22;7666;50.920;4.628;2023-02-28T11:39:20;5.90;99.90
15131;DHT22;7666;50.920;4.628;2023-02-28T11:52:45;6.20;99.90
15131;DHT22;7666;50.920;4.628;2023-02-28T11:58:31;6.50;99.90
15131;DHT22;7666;50.920;4.628;2023-02-28T12:01:45;6.30;99.90
15131;DHT22;7666;50.920;4.628;2023-02-28T12:10:57;6.70;99.90
15131;DHT22;7666;50.920;4.628;2023-02-28T12:17:20;6.10;99.90
15131;DHT22;7666;50.920;4.628;2023-02-28T12:20:20;6.10;99.90
15131;DHT22;7666;50.920;4.628;2023-02-28T12:26:39;6.50;99.90
15131;DHT22;7666;50.920;4.628;2023-02-28T12:29:29;6.40;99.90
15131;DHT22;7666;50.920;4.628;2023-02-28T12:32:31;6.30;99.90
15131;DHT22;7666;50.920;4.628;2023-02-28T12:35:23;6.20;99.90
15131;DHT22;7666;50.920;4.628;2023-02-28T12:38:18;6.30;99.90
15131;DHT22;7666;50.920;4.628;2023-02-28T12:41:18;6.40;99.90
15131;DHT22;7666;50.920;4.628;2023-02-28T12:44:22;6.60;99.90
15131;DHT22;7666;50.920;4.628;2023-02-28T12:47:16;6.70;99.90
15131;DHT22;7666;50.920;4.628;2023-02-28T12:50:08;6.50;99.90
15131;DHT22;7666;50.920;4.628;2023-02-28T12:53:06;6.40;99.90
15131;DHT22;7666;50.920;4.628;2023-02-28T12:58:56;6.60;99.90
15131;DHT22;7666;50.920;4.628;2023-02-28T13:08:36;6.80;99.90
15131;DHT22;7666;50.920;4.628;2023-02-28T13:11:38;6.90;99.90
15131;DHT22;7666;50.920;4.628;2023-02-28T13:17:23;6.80;99.90
15131;DHT22;7666;50.920;4.628;2023-02-28T13:20:20;6.80;99.90
15131;DHT22;7666;50.920;4.628;2023-02-28T13:29:31;6.50;99.90
15131;DHT22;7666;50.920;4.628;2023-02-28T13:32:29;6.80;99.90
15131;DHT22;7666;50.920;4.628;2023-02-28T13:35:35;6.70;99.90
15131;DHT22;7666;50.920;4.628;2023-02-28T13:38:24;6.50;99.90
15131;DHT22;7666;50.920;4.628;2023-02-28T13:49:47;6.40;99.90
15131;DHT22;7666;50.920;4.628;2023-02-28T13:52:44;6.40;99.90
15131;DHT22;7666;50.920;4.628;2023-02-28T13:59:13;6.30;99.90
15131;DHT22;7666;50.920;4.628;2023-02-28T14:02:37;6.20;99.90
15131;DHT22;7666;50.920;4.628;2023-02-28T14:05:29;6.10;99.90
15131;DHT22;7666;50.920;4.628;2023-02-28T14:08:20;6.20;99.90
15131;DHT22;7666;50.920;4.628;2023-02-28T14:11:25;6.40;99.90
15131;DHT22;7666;50.920;4.628;2023-02-28T14:17:20;6.10;99.90
15131;DHT22;7666;50.920;4.628;2023-02-28T14:20:15;6.10;99.90
15131;DHT22;7666;50.920;4.628;2023-02-28T14:23:12;6.20;99.90
15131;DHT22;7666;50.920;4.628;2023-02-28T14:35:43;6.20;99.90
15131;DHT22;7666;50.920;4.628;2023-02-28T14:38:52;6.20;99.90
15131;DHT22;7666;50.920;4.628;2023-02-28T14:41:41;6.10;99.90
15131;DHT22;7666;50.920;4.628;2023-02-28T14:44:27;6.20;99.90
15131;DHT22;7666;50.920;4.628;2023-02-28T14:47:15;6.20;99.90
15131;DHT22;7666;50.920;4.628;2023-02-28T14:50:03;6.40;99.90
15131;DHT22;7666;50.920;4.628;2023-02-28T14:52:55;6.20;99.90
15131;DHT22;7666;50.920;4.628;2023-02-28T14:55:44;6.20;99.90
15131;DHT22;7666;50.920;4.628;2023-02-28T14:58:33;6.10;99.90
15131;DHT22;7666;50.920;4.628;2023-02-28T15:01:21;6.00;99.90
15131;DHT22;7666;50.920;4.628;2023-02-28T15:04:25;6.10;99.90
15131;DHT22;7666;50.920;4.628;2023-02-28T15:07:15;5.90;99.90
15131;DHT22;7666;50.920;4.628;2023-02-28T15:10:18;5.90;99.90
15131;DHT22;7666;50.920;4.628;2023-02-28T15:13:06;6.00;99.90
15131;DHT22;7666;50.920;4.628;2023-02-28T15:16:04;6.10;99.90
15131;DHT22;7666;50.920;4.628;2023-02-28T15:18:54;6.10;99.90
15131;DHT22;7666;50.920;4.628;2023-02-28T15:21:43;6.00;99.90
15131;DHT22;7666;50.920;4.628;2023-02-28T15:27:30;5.90;99.90
15131;DHT22;7666;50.920;4.628;2023-02-28T15:30:29;5.90;99.90
15131;DHT22;7666;50.920;4.628;2023-02-28T15:33:22;5.90;99.90
15131;DHT22;7666;50.920;4.628;2023-02-28T15:36:15;5.90;99.90
15131;DHT22;7666;50.920;4.628;2023-02-28T15:39:01;6.00;99.90
15131;DHT22;7666;50.920;4.628;2023-02-28T15:41:47;6.00;99.90
15131;DHT22;7666;50.920;4.628;2023-02-28T15:44:34;6.00;99.90
15131;DHT22;7666;50.920;4.628;2023-02-28T15:47:23;5.90;99.90
15131;DHT22;7666;50.920;4.628;2023-02-28T15:50:13;5.80;99.90
15131;DHT22;7666;50.920;4.628;2023-02-28T15:53:00;5.90;99.90
15131;DHT22;7666;50.920;4.628;2023-02-28T15:55:54;5.80;99.90
15131;DHT22;7666;50.920;4.628;2023-02-28T15:58:41;5.80;99.90
15131;DHT22;7666;50.920;4.628;2023-02-28T16:01:30;5.70;99.90
15131;DHT22;7666;50.920;4.628;2023-02-28T16:04:19;5.50;99.90
15131;DHT22;7666;50.920;4.628;2023-02-28T16:07:12;5.40;99.90
15131;DHT22;7666;50.920;4.628;2023-02-28T16:09:58;5.30;99.90
15131;DHT22;7666;50.920;4.628;2023-02-28T16:12:45;5.20;99.90
15131;DHT22;7666;50.920;4.628;2023-02-28T16:15:35;5.10;99.90
15131;DHT22;7666;50.920;4.628;2023-02-28T16:18:27;5.10;99.90
15131;DHT22;7666;50.920;4.628;2023-02-28T16:21:13;5.10;99.90
15131;DHT22;7666;50.920;4.628;2023-02-28T16:23:59;5.10;99.90
15131;DHT22;7666;50.920;4.628;2023-02-28T16:26:46;5.20;99.90
15131;DHT22;7666;50.920;4.628;2023-02-28T16:29:35;5.10;99.90
15131;DHT22;7666;50.920;4.628;2023-02-28T16:32:22;5.10;99.90
15131;DHT22;7666;50.920;4.628;2023-02-28T16:35:11;5.20;99.90
15131;DHT22;7666;50.920;4.628;2023-02-28T16:37:59;5.20;99.90
15131;DHT22;7666;50.920;4.628;2023-02-28T16:40:45;5.20;99.90
15131;DHT22;7666;50.920;4.628;2023-02-28T16:43:31;5.00;99.90
15131;DHT22;7666;50.920;4.628;2023-02-28T16:46:18;5.00;99.90
15131;DHT22;7666;50.920;4.628;2023-02-28T16:49:12;4.90;99.90
15131;DHT22;7666;50.920;4.628;2023-02-28T16:51:58;4.80;99.90
15131;DHT22;7666;50.920;4.628;2023-02-28T16:54:44;4.80;99.90
15131;DHT22;7666;50.920;4.628;2023-02-28T16:57:30;4.80;99.90
15131;DHT22;7666;50.920;4.628;2023-02-28T17:00:17;4.70;99.90
15131;DHT22;7666;50.920;4.628;2023-02-28T17:03:03;4.70;99.90
15131;DHT22;7666;50.920;4.628;2023-02-28T17:05:49;4.60;99.90
15131;DHT22;7666;50.920;4.628;2023-02-28T17:08:35;4.60;99.90
15131;DHT22;7666;50.920;4.628;2023-02-28T17:11:22;4.50;99.90
15131;DHT22;7666;50.920;4.628;2023-02-28T17:14:08;4.50;99.90
15131;DHT22;7666;50.920;4.628;2023-02-28T17:16:54;4.40;99.90
15131;DHT22;7666;50.920;4.628;2023-02-28T17:19:40;4.30;99.90
15131;DHT22;7666;50.920;4.628;2023-02-28T17:22:28;4.30;99.90
15131;DHT22;7666;50.920;4.628;2023-02-28T17:25:14;4.20;99.90
15131;DHT22;7666;50.920;4.628;2023-02-28T17:28:00;4.10;99.90
15131;DHT22;7666;50.920;4.628;2023-02-28T17:30:47;4.10;99.90
15131;DHT22;7666;50.920;4.628;2023-02-28T17:33:34;4.00;99.90
15131;DHT22;7666;50.920;4.628;2023-02-28T17:36:25;4.00;99.90
15131;DHT22;7666;50.920;4.628;2023-02-28T17:39:12;3.90;99.90
15131;DHT22;7666;50.920;4.628;2023-02-28T17:41:59;3.80;99.90
15131;DHT22;7666;50.920;4.628;2023-02-28T17:44:45;3.80;99.90
15131;DHT22;7666;50.920;4.628;2023-02-28T17:47:31;3.80;99.90
15131;DHT22;7666;50.920;4.628;2023-02-28T17:50:20;3.80;99.90
15131;DHT22;7666;50.920;4.628;2023-02-28T17:53:07;3.80;99.90
15131;DHT22;7666;50.920;4.628;2023-02-28T17:55:53;3.80;99.90
15131;DHT22;7666;50.920;4.628;2023-02-28T17:58:39;3.70;99.90
15131;DHT22;7666;50.920;4.628;2023-02-28T18:01:25;3.70;99.90
15131;DHT22;7666;50.920;4.628;2023-02-28T18:04:14;3.70;99.90
15131;DHT22;7666;50.920;4.628;2023-02-28T18:07:00;3.70;99.90
15131;DHT22;7666;50.920;4.628;2023-02-28T18:09:46;3.70;99.90
15131;DHT22;7666;50.920;4.628;2023-02-28T18:12:32;3.70;99.90
15131;DHT22;7666;50.920;4.628;2023-02-28T18:15:19;3.60;99.90
15131;DHT22;7666;50.920;4.628;2023-02-28T18:18:08;3.60;99.90
15131;DHT22;7666;50.920;4.628;2023-02-28T18:20:54;3.50;99.90
15131;DHT22;7666;50.920;4.628;2023-02-28T18:23:41;3.50;99.90
15131;DHT22;7666;50.920;4.628;2023-02-28T18:26:32;3.50;99.90
15131;DHT22;7666;50.920;4.628;2023-02-28T18:29:21;3.40;99.90
15131;DHT22;7666;50.920;4.628;2023-02-28T18:32:07;3.30;99.90
15131;DHT22;7666;50.920;4.628;2023-02-28T18:34:55;3.10;99.90
15131;DHT22;7666;50.920;4.628;2023-02-28T18:37:41;2.90;99.90
15131;DHT22;7666;50.920;4.628;2023-02-28T18:40:27;2.90;99.90
15131;DHT22;7666;50.920;4.628;2023-02-28T18:43:13;2.90;99.90
15131;DHT22;7666;50.920;4.628;2023-02-28T18:46:08;2.90;99.90
15131;DHT22;7666;50.920;4.628;2023-02-28T18:48:55;2.90;99.90
15131;DHT22;7666;50.920;4.628;2023-02-28T18:51:41;2.80;99.90
15131;DHT22;7666;50.920;4.628;2023-02-28T18:54:31;2.80;99.90
15131;DHT22;7666;50.920;4.628;2023-02-28T18:57:17;2.80;99.90
15131;DHT22;7666;50.920;4.628;2023-02-28T19:00:03;2.70;99.90
15131;DHT22;7666;50.920;4.628;2023-02-28T19:02:49;2.70;99.90
15131;DHT22;7666;50.920;4.628;2023-02-28T19:05:36;2.60;99.90
15131;DHT22;7666;50.920;4.628;2023-02-28T19:08:23;2.60;99.90
15131;DHT22;7666;50.920;4.628;2023-02-28T19:11:14;2.60;99.90
15131;DHT22;7666;50.920;4.628;2023-02-28T19:14:00;2.60;99.90
15131;DHT22;7666;50.920;4.628;2023-02-28T19:16:47;2.60;99.90
15131;DHT22;7666;50.920;4.628;2023-02-28T19:19:34;2.60;99.90
15131;DHT22;7666;50.920;4.628;2023-02-28T19:22:21;2.50;99.90
15131;DHT22;7666;50.920;4.628;2023-02-28T19:25:07;2.50;99.90
15131;DHT22;7666;50.920;4.628;2023-02-28T19:27:54;2.40;99.90
15131;DHT22;7666;50.920;4.628;2023-02-28T19:30:46;2.40;99.90
15131;DHT22;7666;50.920;4.628;2023-02-28T19:33:33;2.40;99.90
15131;DHT22;7666;50.920;4.628;2023-02-28T19:36:19;2.30;99.90
15131;DHT22;7666;50.920;4.628;2023-02-28T19:39:05;2.30;99.90
15131;DHT22;7666;50.920;4.628;2023-02-28T19:41:51;2.30;99.90
15131;DHT22;7666;50.920;4.628;2023-02-28T19:44:39;2.20;99.90
15131;DHT22;7666;50.920;4.628;2023-02-28T19:47:25;2.10;99.90
15131;DHT22;7666;50.920;4.628;2023-02-28T19:50:11;2.00;99.90
15131;DHT22;7666;50.920;4.628;2023-02-28T19:52:57;2.00;99.90
15131;DHT22;7666;50.920;4.628;2023-02-28T19:55:45;2.10;99.90
15131;DHT22;7666;50.920;4.628;2023-02-28T19:58:32;2.00;99.90
15131;DHT22;7666;50.920;4.628;2023-02-28T20:01:18;2.00;99.90
15131;DHT22;7666;50.920;4.628;2023-02-28T20:04:05;2.00;99.90
15131;DHT22;7666;50.920;4.628;2023-02-28T20:06:51;1.90;99.90
15131;DHT22;7666;50.920;4.628;2023-02-28T20:09:37;1.80;99.90
15131;DHT22;7666;50.920;4.628;2023-02-28T20:12:23;1.70;99.90
15131;DHT22;7666;50.920;4.628;2023-02-28T20:15:10;1.60;99.90
15131;DHT22;7666;50.920;4.628;2023-02-28T20:17:57;1.60;99.90
15131;DHT22;7666;50.920;4.628;2023-02-28T20:20:45;1.50;99.90
15131;DHT22;7666;50.920;4.628;2023-02-28T20:23:31;1.50;99.90
15131;DHT22;7666;50.920;4.628;2023-02-28T20:26:17;1.50;99.90
15131;DHT22;7666;50.920;4.628;2023-02-28T20:29:06;1.50;99.90
15131;DHT22;7666;50.920;4.628;2023-02-28T20:31:52;1.50;99.90
15131;DHT22;7666;50.920;4.628;2023-02-28T20:34:38;1.50;99.90
15131;DHT22;7666;50.920;4.628;2023-02-28T20:37:24;1.50;99.90
15131;DHT22;7666;50.920;4.628;2023-02-28T20:40:12;1.50;99.90
15131;DHT22;7666;50.920;4.628;2023-02-28T20:42:59;1.50;99.90